Главная страница
METAR-TAF:

METAR-TAF

Аэропорты :

Карлстад, Швеция

широта: 59-26-41N, долгота: 013-20-15E, высота над уровнем моря: 107 м

Текущие метеонаблюдения

Эта сводка был подготовлена 42 минут назад, в 17:50 UTC
Ветер 11 Узел от юго-западный
Температура 10°C
Влажность 76%
Давление 1010 hPa
Видимость 10 км и более

METAR: ESOK 221750Z AUTO 23011KT 9999 FEW024/// BKN077/// 10/06 Q1010

Время: 20:32 (18:32 UTC)

Прогноз

Эта сводка был подготовлена 4 часа и 2 минут назад, в 14:30 UTC
Прогноз действительный с 22-го 15 UTC до 22-го 18 UTC
Ветер 15 Узел от юго-западный с порывами до 30 Узел
Видимость 10 км и более
Отдельные облака на высоте 3000 фута
изменения
С 22-го 15 UTC до 22-го 17 UTC
Ветер 12 Узел от юго-западный

TAF: ESOK 221430Z 2215/2218 23015G30KT 9999 SCT030 BECMG 2215/2217 23012KT

Метеонаблюдения и прогнозы для более 4000 аэропортов (сводки METAR и TAF).

Имеющиеся станции представлены на карте желтыми и красными точками.

Чтобы увидеть название станции, наведите на нее мышь.

Затем щелкните, чтобы увидеть метеонаблюдения и метеопрогнозы.

Управление картой: чтобы увеличить масштаб, щелкните зеленые кнопки с черным крестиком; чтобы уменьшить масштаб, щелкните зеленую кнопку с тире; для просмотра соседних карт щелкайте зеленые стрелки.


METAR-TAF: